createdAt,value
2019-05-01T00:01:26.491Z,1.40
2019-05-01T00:04:13.251Z,1.37
2019-05-01T00:06:45.358Z,1.38
2019-05-01T00:09:13.541Z,1.26
2019-05-01T00:11:42.296Z,1.20
2019-05-01T00:14:10.516Z,1.23
2019-05-01T00:16:38.499Z,1.18
2019-05-01T00:19:07.187Z,1.09
2019-05-01T00:21:35.742Z,1.06
2019-05-01T00:24:04.056Z,1.06
2019-05-01T00:26:31.978Z,0.91
2019-05-01T00:29:00.315Z,0.92
2019-05-01T00:31:28.498Z,0.82
2019-05-01T00:33:57.027Z,0.86
2019-05-01T00:36:25.271Z,0.79
2019-05-01T00:38:53.502Z,0.72
2019-05-01T00:41:21.408Z,0.70
2019-05-01T00:43:49.344Z,0.68
2019-05-01T00:46:18.113Z,0.73
2019-05-01T00:48:46.364Z,0.69
2019-05-01T00:51:15.051Z,0.67
2019-05-01T00:53:43.336Z,0.65
2019-05-01T00:56:23.517Z,0.70
2019-05-01T00:59:01.197Z,0.74
2019-05-01T01:02:05.294Z,0.77
2019-05-01T01:04:33.559Z,0.78
2019-05-01T01:07:02.168Z,0.69
2019-05-01T01:09:30.732Z,0.69
2019-05-01T01:11:59.323Z,0.63
2019-05-01T01:14:27.227Z,0.62
2019-05-01T01:16:55.415Z,0.60
2019-05-01T01:19:23.710Z,0.57
2019-05-01T01:21:52.391Z,0.53
2019-05-01T01:24:20.342Z,0.47
2019-05-01T01:26:48.927Z,0.47
2019-05-01T01:29:16.897Z,0.48
2019-05-01T01:31:45.210Z,0.40
2019-05-01T01:34:13.463Z,0.32
2019-05-01T01:36:41.942Z,0.31
2019-05-01T01:39:10.229Z,0.32
2019-05-01T01:41:39.052Z,0.32
2019-05-01T01:44:16.534Z,0.26
2019-05-01T01:46:45.124Z,0.27
2019-05-01T01:49:13.711Z,0.30
2019-05-01T01:51:42.522Z,0.31
2019-05-01T01:54:10.961Z,0.22
2019-05-01T01:56:38.967Z,0.23
2019-05-01T01:59:06.969Z,0.17
2019-05-01T02:01:52.608Z,0.17
2019-05-01T02:04:40.199Z,0.25
2019-05-01T02:07:08.492Z,0.29
2019-05-01T02:09:37.097Z,0.35
2019-05-01T02:12:05.788Z,0.22
2019-05-01T02:14:34.161Z,0.20
2019-05-01T02:17:02.130Z,0.17
2019-05-01T02:19:30.127Z,0.16
2019-05-01T02:21:58.404Z,0.18
2019-05-01T02:24:27.002Z,0.13
2019-05-01T02:26:57.089Z,0.07
2019-05-01T02:29:33.784Z,0.03
2019-05-01T02:32:02.069Z,0.04
2019-05-01T02:34:31.140Z,0.03
2019-05-01T02:37:01.206Z,0.01
2019-05-01T02:39:31.068Z,-0.02
2019-05-01T02:42:01.226Z,0.16
2019-05-01T02:44:35.605Z,0.17
2019-05-01T02:47:06.563Z,0.06
2019-05-01T02:49:39.645Z,0.08
2019-05-01T02:52:09.817Z,0.05
2019-05-01T02:54:38.851Z,-0.03
2019-05-01T02:57:11.007Z,-0.06
2019-05-01T02:59:41.599Z,-0.09
2019-05-01T03:02:10.355Z,0.04
2019-05-01T03:04:38.146Z,-0.01
2019-05-01T03:07:06.972Z,-0.09
2019-05-01T03:09:35.560Z,-0.16
2019-05-01T03:12:04.382Z,-0.11
2019-05-01T03:14:35.145Z,-0.11
2019-05-01T03:17:06.644Z,0.02
2019-05-01T03:19:52.448Z,-0.04
2019-05-01T03:22:39.971Z,-0.10
2019-05-01T03:25:08.658Z,-0.10
2019-05-01T03:27:37.353Z,-0.14
2019-05-01T03:30:05.648Z,-0.23
2019-05-01T03:32:34.309Z,-0.25
2019-05-01T03:35:02.410Z,-0.17
2019-05-01T03:37:30.910Z,-0.16
2019-05-01T03:39:59.842Z,-0.15
2019-05-01T03:42:28.198Z,-0.17
2019-05-01T03:44:56.178Z,-0.17
2019-05-01T03:47:24.825Z,-0.20
2019-05-01T03:49:53.385Z,-0.30
2019-05-01T03:52:21.431Z,-0.28
2019-05-01T03:54:49.308Z,-0.43
2019-05-01T03:57:18.200Z,-0.50
2019-05-01T03:59:46.059Z,-0.55
2019-05-01T04:02:37.136Z,-0.57
2019-05-01T04:05:05.462Z,-0.58
2019-05-01T04:07:36.464Z,-0.55
2019-05-01T04:10:04.984Z,-0.50
2019-05-01T04:12:33.187Z,-0.45
2019-05-01T04:15:01.527Z,-0.40
2019-05-01T04:17:40.943Z,-0.40
2019-05-01T04:20:09.887Z,-0.43
2019-05-01T04:22:38.231Z,-0.44
2019-05-01T04:25:06.203Z,-0.39
2019-05-01T04:27:37.068Z,-0.33
2019-05-01T04:30:13.926Z,-0.32
2019-05-01T04:32:51.795Z,-0.47
2019-05-01T04:35:21.025Z,-0.53
2019-05-01T04:37:49.923Z,-0.51
2019-05-01T04:40:19.275Z,-0.56
2019-05-01T04:42:50.381Z,-0.59
2019-05-01T04:45:19.582Z,-0.58
2019-05-01T04:47:47.843Z,-0.54
2019-05-01T04:50:16.563Z,-0.52
2019-05-01T04:52:45.250Z,-0.48
2019-05-01T04:55:13.830Z,-0.43
2019-05-01T04:57:42.120Z,-0.36
2019-05-01T05:00:10.589Z,-0.25
2019-05-01T05:02:43.917Z,-0.24
2019-05-01T05:05:11.524Z,-0.17
2019-05-01T05:07:39.743Z,-0.16
2019-05-01T05:10:08.282Z,-0.15
2019-05-01T05:12:58.819Z,-0.09
2019-05-01T05:15:48.803Z,0.08
2019-05-01T05:18:17.148Z,0.09
2019-05-01T05:20:45.494Z,0.10
2019-05-01T05:23:13.206Z,0.15
2019-05-01T05:25:42.047Z,0.18
2019-05-01T05:28:10.648Z,0.17
2019-05-01T05:30:39.559Z,0.20
2019-05-01T05:33:18.135Z,0.25
2019-05-01T05:35:41.306Z,0.33
2019-05-01T05:38:34.748Z,0.37
2019-05-01T05:41:03.402Z,0.48
2019-05-01T05:43:58.652Z,0.57
2019-05-01T05:46:27.368Z,0.72
2019-05-01T05:48:55.596Z,0.85
2019-05-01T05:51:43.473Z,0.97
2019-05-01T05:54:31.398Z,1.13
2019-05-01T05:57:06.538Z,1.27
2019-05-01T05:59:38.785Z,1.35
2019-05-01T06:02:28.655Z,1.47
2019-05-01T06:05:37.363Z,1.61
2019-05-01T06:08:13.259Z,1.85
2019-05-01T06:10:49.103Z,1.85
2019-05-01T06:13:36.595Z,1.89
2019-05-01T06:16:17.613Z,1.99
2019-05-01T06:18:54.944Z,2.18
2019-05-01T06:21:44.939Z,2.33
2019-05-01T06:24:21.537Z,2.54
2019-05-01T06:26:50.197Z,2.79
2019-05-01T06:29:18.072Z,2.96
2019-05-01T06:31:46.363Z,3.13
2019-05-01T06:34:14.437Z,3.31
2019-05-01T06:36:44.268Z,3.46
2019-05-01T06:39:13.442Z,3.63
2019-05-01T06:41:43.868Z,3.77
2019-05-01T06:44:18.293Z,3.95
2019-05-01T06:47:06.040Z,4.10
2019-05-01T06:50:06.042Z,4.27
2019-05-01T06:52:33.745Z,4.42
2019-05-01T06:55:02.500Z,4.63
2019-05-01T06:57:30.784Z,4.88
2019-05-01T07:00:03.398Z,5.15
2019-05-01T07:02:34.995Z,5.46
2019-05-01T07:05:02.013Z,5.80
2019-05-01T07:07:31.848Z,6.15
2019-05-01T07:10:01.241Z,6.55
2019-05-01T07:12:30.829Z,7.10
2019-05-01T07:14:59.423Z,7.66
2019-05-01T07:17:27.379Z,8.34
2019-05-01T07:20:11.755Z,9.05
2019-05-01T07:22:42.266Z,9.75
2019-05-01T07:25:10.338Z,10.33
2019-05-01T07:27:38.529Z,10.49
2019-05-01T07:30:44.752Z,10.61
2019-05-01T07:33:16.720Z,10.84
2019-05-01T07:35:44.325Z,11.05
2019-05-01T07:38:12.884Z,10.98
2019-05-01T07:40:41.560Z,11.19
2019-05-01T07:43:28.959Z,11.11
2019-05-01T07:46:09.328Z,11.06
2019-05-01T07:48:41.533Z,10.95
2019-05-01T07:51:09.001Z,10.91
2019-05-01T07:53:37.874Z,10.82
2019-05-01T07:56:07.733Z,10.70
2019-05-01T07:58:36.059Z,10.65
2019-05-01T08:01:13.246Z,10.61
2019-05-01T08:04:13.866Z,10.60
2019-05-01T08:06:39.801Z,10.59
2019-05-01T08:09:11.317Z,10.84
2019-05-01T08:11:39.172Z,10.80
2019-05-01T08:14:11.685Z,10.76
2019-05-01T08:16:42.415Z,10.75
2019-05-01T08:19:23.029Z,10.75
2019-05-01T08:22:01.597Z,10.55
2019-05-01T08:24:28.769Z,10.39
2019-05-01T08:26:57.381Z,10.57
2019-05-01T08:29:43.806Z,10.87
2019-05-01T08:32:26.591Z,11.14
2019-05-01T08:35:00.547Z,11.26
2019-05-01T08:37:27.327Z,11.41
2019-05-01T08:39:55.273Z,11.51
2019-05-01T08:42:23.453Z,11.94
2019-05-01T08:45:13.490Z,12.06
2019-05-01T08:47:43.615Z,12.37
2019-05-01T08:50:14.369Z,12.35
2019-05-01T08:52:47.342Z,12.42
2019-05-01T08:55:13.573Z,12.36
2019-05-01T08:57:42.238Z,12.34
2019-05-01T09:00:11.273Z,12.29
2019-05-01T09:02:41.740Z,12.44
2019-05-01T09:05:27.731Z,12.41
2019-05-01T09:07:40.531Z,12.40
2019-05-01T09:10:09.934Z,12.62
2019-05-01T09:12:38.552Z,12.76
2019-05-01T09:15:07.300Z,12.94
2019-05-01T09:17:37.560Z,13.05
2019-05-01T09:20:06.579Z,13.40
2019-05-01T09:22:34.913Z,13.52
2019-05-01T09:25:03.065Z,13.59
2019-05-01T09:27:39.749Z,13.41
2019-05-01T09:30:21.763Z,13.51
2019-05-01T09:32:54.486Z,13.54
2019-05-01T09:35:22.336Z,13.35
2019-05-01T09:37:50.408Z,13.50
2019-05-01T09:40:19.216Z,13.68
2019-05-01T09:42:47.358Z,13.93
2019-05-01T09:45:16.155Z,13.91
2019-05-01T09:47:44.540Z,14.01
2019-05-01T09:50:12.575Z,14.11
2019-05-01T09:52:49.395Z,14.21
2019-05-01T09:55:25.006Z,14.13
2019-05-01T09:57:53.586Z,14.13
2019-05-01T10:00:28.575Z,14.23
2019-05-01T10:02:56.454Z,14.41
2019-05-01T10:05:29.066Z,14.62
2019-05-01T10:08:00.064Z,14.89
2019-05-01T10:10:29.352Z,15.19
2019-05-01T10:12:56.187Z,15.07
2019-05-01T10:15:24.461Z,15.06
2019-05-01T10:17:53.198Z,14.81
2019-05-01T10:20:20.758Z,14.91
2019-05-01T10:22:48.951Z,14.96
2019-05-01T10:25:17.221Z,14.92
2019-05-01T10:27:52.980Z,14.98
2019-05-01T10:30:44.016Z,15.15
2019-05-01T10:33:23.555Z,15.45
2019-05-01T10:36:18.874Z,15.54
2019-05-01T10:38:45.099Z,15.61
2019-05-01T10:41:13.213Z,15.59
2019-05-01T10:43:41.069Z,15.61
2019-05-01T10:46:09.052Z,15.94
2019-05-01T10:48:37.291Z,16.09
2019-05-01T10:51:05.935Z,16.86
2019-05-01T10:53:34.131Z,17.50
2019-05-01T10:56:02.848Z,17.33
2019-05-01T10:58:31.434Z,17.48
2019-05-01T11:01:07.849Z,17.69
2019-05-01T11:03:36.391Z,17.53
2019-05-01T11:06:04.590Z,17.60
2019-05-01T11:08:32.921Z,18.03
2019-05-01T11:11:01.210Z,18.63
2019-05-01T11:13:29.210Z,18.35
2019-05-01T11:15:57.871Z,18.34
2019-05-01T11:18:26.211Z,18.74
2019-05-01T11:20:54.816Z,18.59
2019-05-01T11:23:23.070Z,17.93
2019-05-01T11:25:51.029Z,17.63
2019-05-01T11:28:19.556Z,18.28
2019-05-01T11:30:47.475Z,18.86
2019-05-01T11:33:32.776Z,18.48
2019-05-01T11:36:24.813Z,18.21
2019-05-01T11:38:57.572Z,17.65
2019-05-01T11:41:35.316Z,17.55
2019-05-01T11:44:03.832Z,18.03
2019-05-01T11:46:31.399Z,17.69
2019-05-01T11:49:00.155Z,17.61
2019-05-01T11:51:28.570Z,17.65
2019-05-01T11:53:57.096Z,17.67
2019-05-01T11:56:25.445Z,16.91
2019-05-01T11:58:53.123Z,16.91
2019-05-01T12:01:23.306Z,16.91
2019-05-01T12:03:51.971Z,16.86
2019-05-01T12:06:23.147Z,17.13
2019-05-01T12:08:49.646Z,17.59
2019-05-01T12:11:19.701Z,17.59
2019-05-01T12:13:48.439Z,17.55
2019-05-01T12:16:26.024Z,17.88
2019-05-01T12:18:54.411Z,17.88
2019-05-01T12:21:22.595Z,17.89
2019-05-01T12:23:50.801Z,18.35
2019-05-01T12:26:19.384Z,18.91
2019-05-01T12:28:47.327Z,19.49
2019-05-01T12:31:15.613Z,20.25
2019-05-01T12:33:43.180Z,20.47
2019-05-01T12:36:11.152Z,19.89
2019-05-01T12:38:39.434Z,19.87
2019-05-01T12:41:39.231Z,19.49
2019-05-01T12:44:07.815Z,19.44
2019-05-01T12:46:55.360Z,19.42
2019-05-01T12:49:23.232Z,19.41
2019-05-01T12:51:54.760Z,19.36
2019-05-01T12:54:33.819Z,19.16
2019-05-01T12:57:01.966Z,20.01
2019-05-01T12:59:30.679Z,20.12
2019-05-01T13:01:58.896Z,20.22
2019-05-01T13:04:27.127Z,20.66
2019-05-01T13:06:56.160Z,20.57
2019-05-01T13:09:24.939Z,20.90
2019-05-01T13:11:53.329Z,19.85
2019-05-01T13:14:21.990Z,19.07
2019-05-01T13:16:49.942Z,18.24
2019-05-01T13:19:18.164Z,18.15
2019-05-01T13:21:46.824Z,18.52
2019-05-01T13:24:15.142Z,19.27
2019-05-01T13:26:51.606Z,20.04
2019-05-01T13:29:24.538Z,20.56
2019-05-01T13:32:12.002Z,20.81
2019-05-01T13:34:39.994Z,20.80
2019-05-01T13:37:08.157Z,20.75
2019-05-01T13:39:36.030Z,20.51
2019-05-01T13:42:04.867Z,20.52
2019-05-01T13:44:33.445Z,21.50
2019-05-01T13:47:01.345Z,22.80
2019-05-01T13:49:29.576Z,23.59
2019-05-01T13:51:57.494Z,23.49
2019-05-01T13:54:25.327Z,23.01
2019-05-01T13:56:53.594Z,22.45
2019-05-01T13:59:22.196Z,21.90
2019-05-01T14:01:50.190Z,22.39
2019-05-01T14:04:21.505Z,21.69
2019-05-01T14:06:48.936Z,20.70
2019-05-01T14:09:24.728Z,20.67
2019-05-01T14:11:53.124Z,22.22
2019-05-01T14:14:21.419Z,24.37
2019-05-01T14:16:49.268Z,25.89
2019-05-01T14:19:17.521Z,26.20
2019-05-01T14:22:14.337Z,24.80
2019-05-01T14:24:46.084Z,24.57
2019-05-01T14:27:14.886Z,24.87
2019-05-01T14:29:42.816Z,24.28
2019-05-01T14:32:11.276Z,23.04
2019-05-01T14:34:39.480Z,21.36
2019-05-01T14:37:08.087Z,19.94
2019-05-01T14:39:36.366Z,20.64
2019-05-01T14:42:04.640Z,19.97
2019-05-01T14:44:37.055Z,19.09
2019-05-01T14:47:02.855Z,18.37
2019-05-01T14:49:31.495Z,17.50
2019-05-01T14:52:00.017Z,17.03
2019-05-01T14:54:28.508Z,16.60
2019-05-01T14:56:56.899Z,16.20
2019-05-01T14:59:25.107Z,16.20
2019-05-01T15:01:53.406Z,16.25
2019-05-01T15:04:22.086Z,16.24
2019-05-01T15:06:50.470Z,16.28
2019-05-01T15:09:18.826Z,16.20
2019-05-01T15:11:47.410Z,16.19
2019-05-01T15:14:26.441Z,16.18
2019-05-01T15:17:14.090Z,16.22
2019-05-01T15:19:47.349Z,16.87
2019-05-01T15:22:15.654Z,19.65
2019-05-01T15:24:44.104Z,22.58
2019-05-01T15:27:12.407Z,24.43
2019-05-01T15:29:40.665Z,24.07
2019-05-01T15:32:09.311Z,22.50
2019-05-01T15:34:37.955Z,21.77
2019-05-01T15:37:05.832Z,22.98
2019-05-01T15:39:59.471Z,23.51
2019-05-01T15:42:43.992Z,24.61
2019-05-01T15:45:11.605Z,25.07
2019-05-01T15:47:40.296Z,24.18
2019-05-01T15:50:08.820Z,22.83
2019-05-01T15:52:37.071Z,21.07
2019-05-01T15:55:06.427Z,20.30
2019-05-01T15:57:34.545Z,20.06
2019-05-01T16:00:03.149Z,19.67
2019-05-01T16:02:31.016Z,19.65
2019-05-01T16:04:58.981Z,19.32
2019-05-01T16:07:27.182Z,19.06
2019-05-01T16:09:55.441Z,18.83
2019-05-01T16:12:39.980Z,19.20
2019-05-01T16:15:11.180Z,19.17
2019-05-01T16:17:39.738Z,19.22
2019-05-01T16:20:08.127Z,19.25
2019-05-01T16:22:36.820Z,19.21
2019-05-01T16:25:05.250Z,19.35
2019-05-01T16:27:33.575Z,19.32
2019-05-01T16:30:01.765Z,19.43
2019-05-01T16:32:30.369Z,19.31
2019-05-01T16:34:58.532Z,19.20
2019-05-01T16:37:26.924Z,19.15
2019-05-01T16:40:20.598Z,19.02
2019-05-01T16:42:49.125Z,18.80
2019-05-01T16:45:17.690Z,18.79
2019-05-01T16:47:45.930Z,18.80
2019-05-01T16:50:14.500Z,18.73
2019-05-01T16:52:43.466Z,18.61
2019-05-01T16:55:12.131Z,18.88
2019-05-01T16:57:40.415Z,18.67
2019-05-01T17:00:11.210Z,18.43
2019-05-01T17:02:49.446Z,18.21
2019-05-01T17:05:28.556Z,18.14
2019-05-01T17:08:04.368Z,18.08
2019-05-01T17:10:35.282Z,17.81
2019-05-01T17:13:04.270Z,17.81
2019-05-01T17:15:36.599Z,17.71
2019-05-01T17:18:04.608Z,17.67
2019-05-01T17:20:33.236Z,17.57
2019-05-01T17:23:00.776Z,17.42
2019-05-01T17:25:29.677Z,17.00
2019-05-01T17:27:58.051Z,17.00
2019-05-01T17:30:47.894Z,16.68
2019-05-01T17:33:25.843Z,16.45
2019-05-01T17:35:54.080Z,16.21
2019-05-01T17:38:22.397Z,15.95
2019-05-01T17:40:51.933Z,15.67
2019-05-01T17:43:21.271Z,15.49
2019-05-01T17:45:49.320Z,15.27
2019-05-01T17:48:17.989Z,15.08
2019-05-01T17:50:46.469Z,14.90
2019-05-01T17:53:14.445Z,14.70
2019-05-01T17:55:42.827Z,14.48
2019-05-01T18:01:22.390Z,13.98
2019-05-01T18:04:12.875Z,13.69
2019-05-01T18:06:46.476Z,13.39
2019-05-01T18:09:15.418Z,13.09
2019-05-01T18:11:47.364Z,12.78
2019-05-01T18:14:14.071Z,12.52
2019-05-01T18:16:42.463Z,12.29
2019-05-01T18:19:10.945Z,12.09
2019-05-01T18:21:41.781Z,11.90
2019-05-01T18:24:32.842Z,11.68
2019-05-01T18:27:20.527Z,11.48
2019-05-01T18:29:53.311Z,11.26
2019-05-01T18:32:41.444Z,11.03
2019-05-01T18:35:09.027Z,10.82
2019-05-01T18:37:49.527Z,10.60
2019-05-01T18:40:25.205Z,10.41
2019-05-01T18:42:53.423Z,10.19
2019-05-01T18:45:53.386Z,10.04
2019-05-01T18:48:22.603Z,9.90
2019-05-01T18:50:54.865Z,9.74
2019-05-01T18:53:21.297Z,9.58
2019-05-01T18:55:49.520Z,9.47
2019-05-01T18:58:17.841Z,9.35
2019-05-01T19:00:45.741Z,9.27
2019-05-01T19:03:13.796Z,9.17
2019-05-01T19:05:43.128Z,9.07
2019-05-01T19:08:14.388Z,9.02
2019-05-01T19:10:44.412Z,8.95
2019-05-01T19:13:14.340Z,8.87
2019-05-01T19:15:43.278Z,8.78
2019-05-01T19:18:12.868Z,8.74
2019-05-01T19:20:42.079Z,8.66
2019-05-01T19:23:10.375Z,8.60
2019-05-01T19:25:40.168Z,8.54
2019-05-01T19:28:11.488Z,8.49
2019-05-01T19:30:40.284Z,8.41
2019-05-01T19:33:09.041Z,8.34
2019-05-01T19:35:37.721Z,8.30
2019-05-01T19:38:07.253Z,8.24
2019-05-01T19:40:35.909Z,8.16
2019-05-01T19:43:04.281Z,8.12
2019-05-01T19:45:32.661Z,8.07
2019-05-01T19:48:01.289Z,8.03
2019-05-01T19:50:29.820Z,7.97
2019-05-01T19:53:02.285Z,7.91
2019-05-01T19:55:30.817Z,7.87
2019-05-01T19:57:58.718Z,7.79
2019-05-01T20:01:04.245Z,7.72
2019-05-01T20:03:36.095Z,7.62
2019-05-01T20:06:05.689Z,7.52
2019-05-01T20:08:32.890Z,7.45
2019-05-01T20:11:01.668Z,7.41
2019-05-01T20:13:31.231Z,7.34
2019-05-01T20:15:59.714Z,7.25
2019-05-01T20:18:28.806Z,7.20
2019-05-01T20:20:57.338Z,7.15
2019-05-01T20:23:30.742Z,7.08
2019-05-01T20:25:57.276Z,7.03
2019-05-01T20:28:28.426Z,6.96
2019-05-01T20:30:56.929Z,6.88
2019-05-01T20:33:26.039Z,6.79
2019-05-01T20:35:54.767Z,6.74
2019-05-01T20:38:23.141Z,6.67
2019-05-01T20:40:51.611Z,6.60
2019-05-01T20:43:20.349Z,6.55
2019-05-01T20:45:51.310Z,6.52
2019-05-01T20:48:23.670Z,6.49
2019-05-01T20:50:50.693Z,6.48
2019-05-01T20:53:19.172Z,6.41
2019-05-01T20:55:58.682Z,6.41
2019-05-01T20:58:27.756Z,6.35
2019-05-01T21:01:01.601Z,6.27
2019-05-01T21:03:29.601Z,6.25
2019-05-01T21:06:12.886Z,6.21
2019-05-01T21:09:08.390Z,6.19
2019-05-01T21:11:42.150Z,6.15
2019-05-01T21:14:18.145Z,6.08
2019-05-01T21:16:39.745Z,6.01
2019-05-01T21:19:08.701Z,5.99
2019-05-01T21:21:37.017Z,5.92
2019-05-01T21:24:04.885Z,5.91
2019-05-01T21:26:33.936Z,5.93
2019-05-01T21:29:14.004Z,5.86
2019-05-01T21:31:44.068Z,5.85
2019-05-01T21:34:14.472Z,5.81
2019-05-01T21:36:47.643Z,5.80
2019-05-01T21:39:14.964Z,5.81
2019-05-01T21:41:43.304Z,5.75
2019-05-01T21:44:13.159Z,5.75
2019-05-01T21:46:40.897Z,5.81
2019-05-01T21:49:10.125Z,6.02
2019-05-01T21:51:42.382Z,6.19
2019-05-01T21:54:09.104Z,6.23
2019-05-01T21:56:41.263Z,6.22
2019-05-01T21:59:08.562Z,6.01
2019-05-01T22:01:36.858Z,6.00
2019-05-01T22:04:05.138Z,5.97
2019-05-01T22:06:33.392Z,5.90
2019-05-01T22:09:01.363Z,5.90
2019-05-01T22:11:33.124Z,5.92
2019-05-01T22:14:02.262Z,5.82
2019-05-01T22:16:30.332Z,5.77
2019-05-01T22:19:12.421Z,5.73
2019-05-01T22:22:15.250Z,5.67
2019-05-01T22:24:50.790Z,5.66
2019-05-01T22:27:25.375Z,5.56
2019-05-01T22:30:00.307Z,5.48
2019-05-01T22:32:35.302Z,5.33
2019-05-01T22:35:14.041Z,5.16
2019-05-01T22:37:42.655Z,5.04
2019-05-01T22:40:12.147Z,4.93
2019-05-01T22:42:40.509Z,4.85
2019-05-01T22:45:14.276Z,4.84
2019-05-01T22:47:45.993Z,4.80
2019-05-01T22:50:12.909Z,4.79
2019-05-01T22:52:40.091Z,4.76
2019-05-01T22:55:08.481Z,4.69
2019-05-01T22:57:36.765Z,4.74
2019-05-01T23:00:06.121Z,4.90
2019-05-01T23:02:38.979Z,4.98
2019-05-01T23:05:07.551Z,5.01
2019-05-01T23:07:36.098Z,5.03
2019-05-01T23:10:05.149Z,4.95
2019-05-01T23:12:33.447Z,4.80
2019-05-01T23:15:03.691Z,4.71
2019-05-01T23:17:43.342Z,4.65
2019-05-01T23:20:12.083Z,4.51
2019-05-01T23:22:40.266Z,4.40
2019-05-01T23:25:09.208Z,4.35
2019-05-01T23:27:37.846Z,4.27
2019-05-01T23:30:07.378Z,4.19
2019-05-01T23:32:35.852Z,4.24
2019-05-01T23:35:03.502Z,4.40
2019-05-01T23:37:32.640Z,4.53
2019-05-01T23:40:01.320Z,4.54
2019-05-01T23:42:29.596Z,4.54
2019-05-01T23:44:57.155Z,4.45
2019-05-01T23:47:25.305Z,4.40
2019-05-01T23:49:53.835Z,4.32
2019-05-01T23:52:21.810Z,4.28
2019-05-01T23:54:49.832Z,4.21
2019-05-01T23:57:18.882Z,4.17
2019-05-01T23:59:47.966Z,4.11
